New Harbor, ME

43° 52' 34"N, 69° 29' 40"W, Elevation 65 ft.
Eastern Time

Hourly observations for the last 72 hours

Date Time Temperature (°F) Humi-
dity

(%)
Wind
(mph)
Pressure Rain (in) Sun
(W/m2)
ET
(in)
Air Dew 6 Hour 1 Hr 3 Hr 6 Hr Day
Alt
(in)
Sea
Level

(mb)
Max Min
28 16:00 74.8 55.5 51 E 1 G 12 29.93 1013.6 0.10 668 0.121
28 15:00 74.3 57.6 56 N 2 G 10 29.93 1013.7 0.10 777 0.100
28 14:00 73.4 56.3 74.3 60.7 55 ENE 2 G 8 29.95 1014.2 0.10 875 0.078
28 13:00 73.0 56.9 57 WNW 4 G 10 29.96 1014.6 0.10 921 0.057
28 12:00 71.2 53.7 54 ENE 2 G 10 29.96 1014.6 0.10 450 0.037
28 11:00 68.3 57.7 69 E 2 G 8 29.97 1014.9 0.10 809 0.023
28 10:00 67.8 60.0 76 NNE 2 G 7 29.97 1014.8 0.10 580 0.010
28 09:00 64.1 56.7 77 NNW 2 G 6 29.97 1014.8 0.10 429 0.002
28 08:00 60.7 56.2 62.5 57.5 85 E 1 G 4 29.97 1014.8 0.10 60 0.001
28 07:00 57.7 56.0 94 NE 1 G 3 29.94 1013.9 0.10 83 0.000
28 06:00 59.2 57.8 95 NW 0 G 3 29.93 1013.4 0.10 16 0.000
28 05:00 61.6 60.2 95 NNW 1 G 3 29.92 1013.1 0.10 0 0.000
28 04:00 62.1 60.7 95 NE 0 G 1 29.91 1012.7 0.10 0 0.000
28 03:00 62.2 60.8 95 Calm 29.90 1012.4 0.10 0 0.000
28 02:00 62.3 60.9 68.7 62.2 95 Calm 29.89 1012.3 0.07 0.26 0.36 0.10 0 0.000
28 01:00 62.4 60.9 95 Calm 29.90 1012.5 0.03 0.03 0 0.000
28 00:00 63.0 61.2 94 NE 0 G 1 29.90 1012.7 0.16 0.27 0 0.154
27 23:00 63.1 61.0 93 NW 0 G 3 29.89 1012.3 0.01 0.10 0.11 0 0.154
27 22:00 63.6 61.5 93 NW 0 G 3 29.88 1012.0 0.03 0.10 0 0.154
27 21:00 64.6 62.2 92 NNW 0 G 1 29.89 1012.2 0.06 0.07 0 0.154
27 20:00 68.7 62.3 83.0 68.7 80 NW 1 G 5 29.90 1012.5 0.01 0.01 0.01 0.01 0 0.153
27 19:00 73.5 64.3 73 NW 1 G 6 29.87 1011.4 0.00 11 0.151
27 18:00 74.3 64.7 72 W 2 G 4 29.84 1010.7 0.00 120 0.145
27 17:00 76.1 64.8 68 WSW 1 G 3 29.85 1010.8 0.00 185 0.135
27 16:00 79.2 67.7 68 SW 3 G 10 29.85 1010.9 0.00 580 0.118
27 15:00 82.4 68.1 62 SSW 3 G 6 29.85 1010.8 0.00 731 0.098
27 14:00 81.6 62.8 81.8 69.2 53 NW 3 G 9 29.84 1010.6 0.00 814 0.077
27 13:00 79.2 63.7 59 WNW 5 G 11 29.84 1010.7 0.00 737 0.057
27 12:00 79.3 65.2 62 NW 2 G 10 29.85 1010.7 0.00 710 0.038
27 11:00 77.8 67.7 71 N 3 G 8 29.85 1010.9 0.00 682 0.023
27 10:00 76.8 67.5 73 NW 3 G 6 29.85 1010.9 0.00 480 0.011
27 09:00 73.0 66.1 79 NW 2 G 6 29.84 1010.6 0.00 410 0.003
27 08:00 69.2 64.5 69.2 63.7 85 NW 2 G 4 29.84 1010.4 0.00 95 0.001
27 07:00 66.4 63.7 91 NW 1 G 5 29.84 1010.5 0.00 63 0.000
27 06:00 64.9 63.1 94 NNW 2 G 5 29.82 1009.9 0.00 18 0.000
27 05:00 64.1 62.6 95 NW 0 G 3 29.80 1009.1 0.00 0 0.000
27 04:00 64.8 63.0 94 Calm 29.79 1009.0 0.00 0 0.000
27 03:00 65.2 63.4 94 WNW 1 G 2 29.80 1009.0 0.00 0 0.000
27 02:00 64.9 63.1 68.0 64.3 94 WNW 0 G 2 29.79 1008.9 0.00 0 0.000
27 01:00 64.4 62.6 94 Calm 29.79 1008.9 0.00 0 0.000
27 00:00 65.0 62.9 93 WNW 1 G 2 29.80 1009.3 0.00 0 0.112
26 23:00 66.3 63.9 92 W 4 G 8 29.80 1009.1 0.00 0 0.112
26 22:00 66.2 63.8 92 WSW 1 G 2 29.79 1009.0 0.00 0 0.112
26 21:00 66.8 64.1 91 W 2 G 4 29.79 1008.9 0.00 0 0.112
26 20:00 67.9 64.9 76.7 67.9 90 WSW 2 G 7 29.77 1008.3 0.00 0 0.111
26 19:00 70.5 66.1 86 WNW 2 G 7 29.77 1008.3 0.00 70 0.109
26 18:00 73.5 68.0 83 S 2 G 6 29.77 1008.2 0.00 130 0.104
26 17:00 74.5 68.6 82 SSW 2 G 7 29.78 1008.4 0.00 288 0.096
26 16:00 75.4 69.2 81 S 3 G 7 29.78 1008.4 0.00 392 0.085
26 15:00 76.4 68.7 77 S 3 G 7 29.79 1008.8 0.00 483 0.072
26 14:00 76.7 69.7 76.9 65.6 79 S 1 G 7 29.79 1008.8 0.00 626 0.057
26 13:00 75.9 69.7 81 WSW 2 G 6 29.79 1008.8 0.00 643 0.041
26 12:00 74.2 69.7 86 SW 2 G 6 29.79 1008.7 0.00 689 0.025
26 11:00 71.9 67.8 87 S 1 G 3 29.79 1008.9 0.00 519 0.014
26 10:00 69.4 68.2 96 NW 2 G 4 29.79 1008.9 0.00 497 0.007
26 09:00 67.5 66.6 97 Calm 29.80 1009.1 0.00 206 0.003
26 08:00 65.8 64.9 65.8 62.6 97 Calm 29.80 1009.0 0.00 116 0.001
26 07:00 64.7 63.8 97 NW 0 G 1 29.78 1008.6 0.00 51 0.000
26 06:00 63.3 62.1 96 Calm 29.78 1008.5 0.00 16 0.000
26 05:00 62.8 61.6 96 Calm 29.76 1007.9 0.00 0 0.000
26 04:00 63.0 61.8 96 Calm 29.77 1008.3 0.00 0 0.000
26 03:00 64.0 62.8 96 WSW 0 G 3 29.79 1008.8 0.00 0 0.000
26 02:00 64.1 62.9 64.1 61.8 96 SW 0 G 2 29.79 1008.9 0.00 0 0.000
26 01:00 63.0 61.8 96 W 2 G 8 29.80 1009.2 0.00 0 0.000
26 00:00 63.2 62.0 96 W 3 G 9 29.80 1009.3 0.35 0 0.024
25 23:00 62.4 60.9 95 W 2 G 7 29.81 1009.6 0.35 0 0.024
25 22:00 62.0 60.6 95 SSW 0 G 2 29.82 1009.9 0.35 0 0.024
25 21:00 62.9 61.4 95 SW 0 G 3 29.82 1009.7 0.35 0 0.024
25 20:00 63.5 61.7 65.3 63.5 94 S 1 G 5 29.80 1009.3 0.03 0.35 5 0.023
25 19:00 64.1 62.3 94 SW 2 G 4 29.81 1009.5 0.35 40 0.022
25 18:00 65.2 63.4 94 S 3 G 11 29.80 1009.2 0.35 47 0.020
25 17:00 64.5 63.0 95 S 4 G 12 29.81 1009.6 0.03 0.35 69 0.018

Data generated by WxSolution Version 1.9.1.8, Build 2020.02.16.